Time,TemperatureF,DewpointF,PressureIn,WindDirection,WindDirectionDegrees,WindSpeedMPH,WindSpeedGustMPH,Humidity,HourlyPrecipIn,Conditions,Clouds,dailyrainin,SolarRadiationWatts/m^2,SoftwareType,DateUTC
2013-02-19 00:00:00,63.9,61.8,29.98,South,182,3.5,3.5,93,0.00,OVC,SKC,0.00,0.0,WeatherDisplay:10.37,2013-02-19 06:00:00,
2013-02-19 00:05:00,63.8,62.0,29.98,SSE,153,3.5,3.5,94,0.00,OVC,SKC,0.00,0.0,WeatherDisplay:10.37,2013-02-19 06:05:00,
2013-02-19 00:10:00,63.8,62.0,29.98,West,269,3.5,3.5,94,0.00,OVC,SKC,0.00,0.0,WeatherDisplay:10.37,2013-02-19 06:10:00,
2013-02-19 00:15:00,63.8,62.0,29.98,SE,144,1.1,1.1,94,0.00,OVC,SKC,0.00,0.0,WeatherDisplay:10.37,2013-02-19 06:15:00,
2013-02-19 00:20:00,63.7,61.9,29.98,South,169,1.1,0.0,94,0.00,OVC,SKC,0.00,0.0,WeatherDisplay:10.37,2013-02-19 06:20:00,
2013-02-19 00:25:00,63.7,61.9,29.98,South,171,0.0,0.2,94,0.00,OVC,SKC,0.00,0.0,WeatherDisplay:10.37,2013-02-19 06:25:00,
2013-02-19 00:30:00,63.7,61.9,29.98,SSW,208,2.3,2.3,94,0.00,OVC,SKC,0.00,0.0,WeatherDisplay:10.37,2013-02-19 06:30:00,
2013-02-19 00:35:00,63.7,61.9,29.98,South,177,2.3,2.3,94,0.00,OVC,SKC,0.00,0.0,WeatherDisplay:10.37,2013-02-19 06:35:00,
2013-02-19 00:40:00,63.6,61.8,29.97,South,180,2.0,2.0,94,0.00,OVC,SKC,0.00,0.0,WeatherDisplay:10.37,2013-02-19 06:40:00,
2013-02-19 00:45:00,63.5,61.7,29.97,South,169,3.5,3.5,94,0.00,OVC,SKC,0.00,0.0,WeatherDisplay:10.37,2013-02-19 06:45:00,
2013-02-19 00:50:00,63.6,61.8,29.97,SSW,196,1.1,1.1,94,0.00,OVC,SKC,0.00,0.0,WeatherDisplay:10.37,2013-02-19 06:50:00,
2013-02-19 00:55:00,63.6,61.8,29.97,SSE,154,1.1,1.1,94,0.00,OVC,SKC,0.00,0.0,WeatherDisplay:10.37,2013-02-19 06:55:00,
2013-02-19 01:00:00,63.6,61.8,29.97,SSW,196,3.5,3.5,94,0.00,OVC,SKC,0.00,0.0,WeatherDisplay:10.37,2013-02-19 07:00:00,
2013-02-19 01:05:00,63.5,61.7,29.97,South,174,2.3,2.3,94,0.00,OVC,SKC,0.00,0.0,WeatherDisplay:10.37,2013-02-19 07:05:00,
2013-02-19 01:10:00,63.5,61.7,29.98,SSE,156,2.3,2.3,94,0.00,OVC,SKC,0.00,0.0,WeatherDisplay:10.37,2013-02-19 07:10:00,
2013-02-19 01:15:00,63.5,61.7,29.98,South,169,3.5,3.5,94,0.00,OVC,SKC,0.00,0.0,WeatherDisplay:10.37,2013-02-19 07:15:00,
2013-02-19 01:20:00,63.6,61.8,29.98,SSW,192,3.5,3.5,94,0.00,OVC,SKC,0.00,0.0,WeatherDisplay:10.37,2013-02-19 07:20:00,
2013-02-19 01:25:00,63.5,61.7,29.98,SSE,152,3.5,3.5,94,0.00,OVC,SKC,0.00,0.0,WeatherDisplay:10.37,2013-02-19 07:25:00,
2013-02-19 01:30:00,63.5,61.7,29.98,SSE,149,1.1,1.1,94,0.00,OVC,SKC,0.00,0.0,WeatherDisplay:10.37,2013-02-19 07:30:00,
2013-02-19 01:35:00,63.4,61.6,29.98,South,174,2.3,0.0,94,0.00,OVC,SKC,0.00,0.0,WeatherDisplay:10.37,2013-02-19 07:35:00,
2013-02-19 01:40:00,63.4,61.6,29.98,South,174,3.5,3.5,94,0.00,OVC,SKC,0.00,0.0,WeatherDisplay:10.37,2013-02-19 07:40:00,
2013-02-19 01:45:00,63.4,61.9,29.98,SSE,153,2.3,2.3,95,0.00,OVC,SKC,0.00,0.0,WeatherDisplay:10.37,2013-02-19 07:45:00,
2013-02-19 01:50:00,63.3,61.8,29.98,SSE,150,1.1,1.1,95,0.00,OVC,SKC,0.00,0.0,WeatherDisplay:10.37,2013-02-19 07:50:00,
2013-02-19 01:55:00,63.3,61.5,29.99,SSE,156,0.0,0.0,94,0.00,OVC,SKC,0.00,0.0,WeatherDisplay:10.37,2013-02-19 07:55:00,
2013-02-19 02:00:00,63.2,61.4,29.99,SSE,156,0.0,0.0,94,0.00,OVC,SKC,0.00,0.0,WeatherDisplay:10.37,2013-02-19 08:00:00,
2013-02-19 02:05:00,63.2,61.7,29.99,SSE,161,2.3,2.3,95,0.00,OVC,SKC,0.00,0.0,WeatherDisplay:10.37,2013-02-19 08:05:00,
2013-02-19 02:10:00,63.3,61.8,29.99,SSE,161,2.3,2.3,95,0.00,OVC,SKC,0.00,0.0,WeatherDisplay:10.37,2013-02-19 08:10:00,
2013-02-19 02:15:00,63.3,61.8,29.99,SSE,161,1.1,1.1,95,0.00,OVC,SKC,0.00,0.0,WeatherDisplay:10.37,2013-02-19 08:15:00,
2013-02-19 02:20:00,63.2,61.7,29.99,SSE,161,1.1,0.0,95,0.00,OVC,SKC,0.00,0.0,WeatherDisplay:10.37,2013-02-19 08:20:00,
2013-02-19 02:25:00,63.2,61.7,29.99,SSE,161,0.0,0.0,95,0.00,OVC,SKC,0.00,0.0,WeatherDisplay:10.37,2013-02-19 08:25:00,
2013-02-19 02:30:00,63.2,61.7,29.99,SSE,161,1.1,1.1,95,0.00,OVC,SKC,0.00,0.0,WeatherDisplay:10.37,2013-02-19 08:30:00,
2013-02-19 02:35:00,63.2,61.7,29.99,SSE,161,1.1,1.1,95,0.00,OVC,SKC,0.00,0.0,WeatherDisplay:10.37,2013-02-19 08:35:00,
2013-02-19 02:40:00,63.2,61.7,29.99,SSE,161,0.0,0.2,95,0.00,OVC,SKC,0.00,0.0,WeatherDisplay:10.37,2013-02-19 08:40:00,
2013-02-19 02:45:00,63.1,61.6,29.99,SSE,161,0.0,0.0,95,0.00,OVC,SKC,0.00,0.0,WeatherDisplay:10.37,2013-02-19 08:45:00,
2013-02-19 02:50:00,63.1,61.6,29.99,NW,326,6.0,6.0,95,0.00,OVC,SKC,0.00,0.0,WeatherDisplay:10.37,2013-02-19 08:50:00,
2013-02-19 02:55:00,63.1,61.6,30.02,NW,317,11.5,11.5,95,0.00,OVC,SKC,0.00,0.0,WeatherDisplay:10.37,2013-02-19 08:55:00,
2013-02-19 03:00:00,64.0,62.8,30.02,North,5,5.8,5.8,96,0.00,OVC,SKC,0.00,0.0,WeatherDisplay:10.37,2013-02-19 09:00:00,
2013-02-19 03:05:00,64.5,63.0,30.02,North,360,9.2,9.2,95,0.00,BKN,SKC,0.00,0.0,WeatherDisplay:10.37,2013-02-19 09:05:00,
2013-02-19 03:10:00,64.9,63.4,30.03,NNW,346,4.6,4.6,95,0.00,BKN,SKC,0.00,0.0,WeatherDisplay:10.37,2013-02-19 09:10:00,
2013-02-19 03:15:00,65.2,63.4,30.03,North,355,3.5,3.5,94,0.00,BKN,SKC,0.00,0.0,WeatherDisplay:10.37,2013-02-19 09:15:00,
2013-02-19 03:20:00,65.4,63.6,30.03,NNE,33,2.3,2.3,94,0.00,BKN,SKC,0.00,0.0,WeatherDisplay:10.37,2013-02-19 09:20:00,
2013-02-19 03:25:00,64.7,62.0,30.04,North,9,11.5,11.5,91,0.00,BKN,SKC,0.00,0.0,WeatherDisplay:10.37,2013-02-19 09:25:00,
2013-02-19 03:30:00,63.1,58.2,30.04,NE,55,20.7,20.7,84,0.00,BKN,SKC,0.00,0.0,WeatherDisplay:10.37,2013-02-19 09:30:00,
2013-02-19 03:35:00,61.9,56.3,30.04,NE,45,18.4,18.4,82,0.00,BKN,SKC,0.00,0.0,WeatherDisplay:10.37,2013-02-19 09:35:00,
2013-02-19 03:40:00,61.4,55.2,30.04,NNE,33,18.4,18.4,80,0.00,BKN,SKC,0.00,0.0,WeatherDisplay:10.37,2013-02-19 09:40:00,
2013-02-19 03:45:00,61.3,54.7,30.04,NE,55,17.3,17.3,79,0.00,BKN,SKC,0.00,0.0,WeatherDisplay:10.37,2013-02-19 09:45:00,
2013-02-19 03:50:00,61.4,54.1,30.04,ENE,61,13.8,13.8,77,0.00,BKN,SKC,0.00,0.0,WeatherDisplay:10.37,2013-02-19 09:50:00,
2013-02-19 03:55:00,61.5,53.5,30.05,East,83,19.6,19.6,75,0.00,BKN,SKC,0.00,0.0,WeatherDisplay:10.37,2013-02-19 09:55:00,
2013-02-19 04:00:00,61.7,53.3,30.05,ENE,64,16.1,16.1,74,0.00,BKN,SKC,0.00,0.0,WeatherDisplay:10.37,2013-02-19 10:00:00,
2013-02-19 04:05:00,61.7,53.7,30.05,ENE,67,16.1,16.1,75,0.00,OVC,SKC,0.00,0.0,WeatherDisplay:10.37,2013-02-19 10:05:00,
2013-02-19 04:10:00,61.9,53.1,30.05,NE,55,17.3,17.3,73,0.00,OVC,SKC,0.00,0.0,WeatherDisplay:10.37,2013-02-19 10:10:00,
2013-02-19 04:15:00,62.1,53.0,30.05,ENE,78,13.8,13.8,72,0.00,OVC,SKC,0.00,0.0,WeatherDisplay:10.37,2013-02-19 10:15:00,
2013-02-19 04:20:00,62.1,52.6,30.05,NE,44,19.6,19.6,71,0.00,OVC,SKC,0.00,0.0,WeatherDisplay:10.37,2013-02-19 10:20:00,
2013-02-19 04:25:00,62.1,52.6,30.05,NNE,32,18.4,18.4,71,0.00,OVC,SKC,0.00,0.0,WeatherDisplay:10.37,2013-02-19 10:25:00,
2013-02-19 04:30:00,62.0,52.5,30.05,NE,55,18.4,18.4,71,0.00,OVC,SKC,0.00,0.0,WeatherDisplay:10.37,2013-02-19 10:30:00,
2013-02-19 04:35:00,61.9,52.8,30.05,ENE,68,18.4,18.4,72,0.00,OVC,SKC,0.00,0.0,WeatherDisplay:10.37,2013-02-19 10:35:00,
2013-02-19 04:40:00,61.8,53.1,30.05,NE,51,15.0,15.0,73,0.00,OVC,SKC,0.00,0.0,WeatherDisplay:10.37,2013-02-19 10:40:00,
2013-02-19 04:45:00,61.8,52.7,30.05,NE,49,11.5,11.5,72,0.00,OVC,SKC,0.00,0.0,WeatherDisplay:10.37,2013-02-19 10:45:00,
2013-02-19 04:50:00,61.8,52.7,30.05,NE,55,15.0,15.0,72,0.00,OVC,SKC,0.00,0.0,WeatherDisplay:10.37,2013-02-19 10:50:00,
2013-02-19 04:55:00,61.9,52.8,30.06,ENE,69,16.1,16.1,72,0.00,OVC,SKC,0.00,0.0,WeatherDisplay:10.37,2013-02-19 10:55:00,
2013-02-19 05:00:00,61.9,52.8,30.06,NE,36,16.0,16.0,72,0.00,OVC,SKC,0.00,0.0,WeatherDisplay:10.37,2013-02-19 11:00:00,
2013-02-19 05:05:00,62.0,52.5,30.06,ENE,65,19.6,19.6,71,0.00,OVC,SKC,0.00,0.0,WeatherDisplay:10.37,2013-02-19 11:05:00,
2013-02-19 05:10:00,62.1,51.8,30.06,ENE,66,17.3,17.3,69,0.00,OVC,SKC,0.00,0.0,WeatherDisplay:10.37,2013-02-19 11:10:00,
2013-02-19 05:15:00,62.2,51.9,30.07,ENE,57,16.1,16.1,69,0.00,OVC,SKC,0.00,0.0,WeatherDisplay:10.37,2013-02-19 11:15:00,
2013-02-19 05:20:00,62.1,52.2,30.07,ENE,57,19.6,19.6,70,0.00,OVC,SKC,0.00,0.0,WeatherDisplay:10.37,2013-02-19 11:20:00,
2013-02-19 05:25:00,62.1,52.2,30.07,ENE,65,18.4,18.4,70,0.00,OVC,SKC,0.00,0.0,WeatherDisplay:10.37,2013-02-19 11:25:00,
2013-02-19 05:30:00,62.1,51.8,30.07,ENE,71,21.9,21.9,69,0.00,OVC,SKC,0.00,0.0,WeatherDisplay:10.37,2013-02-19 11:30:00,
2013-02-19 05:35:00,62.2,51.1,30.07,NE,43,18.4,18.4,67,0.00,OVC,SKC,0.00,0.0,WeatherDisplay:10.37,2013-02-19 11:35:00,
2013-02-19 05:40:00,62.2,50.3,30.07,ENE,58,21.9,21.9,65,0.00,OVC,SKC,0.00,0.0,WeatherDisplay:10.37,2013-02-19 11:40:00,
2013-02-19 05:45:00,62.2,51.5,30.07,East,80,17.3,17.3,68,0.00,OVC,SKC,0.00,0.0,WeatherDisplay:10.37,2013-02-19 11:45:00,
2013-02-19 05:50:00,62.1,50.2,30.07,ENE,61,19.6,19.6,65,0.00,OVC,SKC,0.00,0.0,WeatherDisplay:10.37,2013-02-19 11:50:00,
2013-02-19 05:55:00,62.0,49.7,30.08,ENE,76,20.7,20.7,64,0.00,OVC,SKC,0.00,0.0,WeatherDisplay:10.37,2013-02-19 11:55:00,
2013-02-19 06:00:00,62.0,50.5,30.08,East,79,20.7,20.7,66,0.00,OVC,SKC,0.00,0.0,WeatherDisplay:10.37,2013-02-19 12:00:00,
2013-02-19 06:05:00,62.0,49.7,30.08,ENE,59,20.7,20.7,64,0.00,OVC,SKC,0.00,0.0,WeatherDisplay:10.37,2013-02-19 12:05:00,
2013-02-19 06:10:00,61.9,50.4,30.08,NE,55,20.7,20.7,66,0.00,OVC,SKC,0.00,0.0,WeatherDisplay:10.37,2013-02-19 12:10:00,
2013-02-19 06:15:00,61.8,50.3,30.08,ENE,73,18.4,18.4,66,0.00,OVC,SKC,0.00,0.0,WeatherDisplay:10.37,2013-02-19 12:15:00,
2013-02-19 06:20:00,61.8,50.3,30.08,ENE,61,19.6,19.6,66,0.00,OVC,SKC,0.00,0.0,WeatherDisplay:10.37,2013-02-19 12:20:00,
2013-02-19 06:25:00,61.8,49.5,30.09,ENE,64,19.6,19.6,64,0.00,OVC,SKC,0.00,0.0,WeatherDisplay:10.37,2013-02-19 12:25:00,
2013-02-19 06:30:00,61.6,49.3,30.09,ENE,65,19.6,19.6,64,0.00,OVC,SKC,0.00,0.0,WeatherDisplay:10.37,2013-02-19 12:30:00,
2013-02-19 06:35:00,61.5,49.2,30.09,NE,38,19.6,19.6,64,0.00,OVC,SKC,0.00,0.0,WeatherDisplay:10.37,2013-02-19 12:35:00,
2013-02-19 06:40:00,61.4,49.9,30.10,ENE,65,15.0,15.0,66,0.00,OVC,SKC,0.00,0.0,WeatherDisplay:10.37,2013-02-19 12:40:00,
2013-02-19 06:45:00,61.3,49.4,30.10,ENE,57,19.6,19.6,65,0.00,OVC,SKC,0.00,0.0,WeatherDisplay:10.37,2013-02-19 12:45:00,
2013-02-19 06:50:00,61.4,49.9,30.10,ENE,60,19.6,19.6,66,0.00,OVC,SKC,0.00,0.0,WeatherDisplay:10.37,2013-02-19 12:50:00,
2013-02-19 06:55:00,61.4,49.5,30.10,ENE,58,21.9,21.9,65,0.00,OVC,SKC,0.00,0.0,WeatherDisplay:10.37,2013-02-19 12:55:00,
2013-02-19 07:00:00,61.3,50.2,30.10,NE,46,15.0,15.0,67,0.00,OVC,SKC,0.00,0.0,WeatherDisplay:10.37,2013-02-19 13:00:00,
2013-02-19 07:05:00,61.3,50.2,30.10,NE,55,21.9,21.9,67,0.00,OVC,SKC,0.00,7.0,WeatherDisplay:10.37,2013-02-19 13:05:00,
2013-02-19 07:10:00,61.3,50.6,30.10,NE,36,16.1,16.1,68,0.00,OVC,SKC,0.00,11.0,WeatherDisplay:10.37,2013-02-19 13:10:00,
2013-02-19 07:15:00,61.2,50.9,30.10,NE,42,19.6,19.6,69,0.00,OVC,SKC,0.00,19.0,WeatherDisplay:10.37,2013-02-19 13:15:00,
2013-02-19 07:20:00,61.2,51.3,30.10,ENE,57,18.4,18.4,70,0.00,OVC,SKC,0.00,25.0,WeatherDisplay:10.37,2013-02-19 13:20:00,
2013-02-19 07:25:00,61.2,50.9,30.11,NE,50,18.4,18.4,69,0.00,OVC,SKC,0.00,30.0,WeatherDisplay:10.37,2013-02-19 13:25:00,
2013-02-19 07:30:00,61.2,52.1,30.11,ENE,70,16.1,16.1,72,0.00,OVC,SKC,0.00,51.0,WeatherDisplay:10.37,2013-02-19 13:30:00,
2013-02-19 07:35:00,61.2,51.3,30.11,ENE,78,19.6,19.6,70,0.00,OVC,SKC,0.00,77.0,WeatherDisplay:10.37,2013-02-19 13:35:00,
2013-02-19 07:40:00,61.1,50.8,30.11,NE,49,17.3,17.3,69,0.00,OVC,SKC,0.00,123.0,WeatherDisplay:10.37,2013-02-19 13:40:00,
2013-02-19 07:45:00,61.2,51.7,30.11,NE,44,19.6,19.6,71,0.00,OVC,SKC,0.00,160.0,WeatherDisplay:10.37,2013-02-19 13:45:00,
2013-02-19 07:50:00,61.3,51.0,30.11,ENE,75,19.6,19.6,69,0.00,OVC,SKC,0.00,197.0,WeatherDisplay:10.37,2013-02-19 13:50:00,
2013-02-19 07:56:00,61.4,50.7,30.12,ENE,60,20.7,20.7,68,0.00,OVC,SKC,0.00,225.0,WeatherDisplay:10.37,2013-02-19 13:56:00,
2013-02-19 08:01:00,61.4,50.3,30.12,ENE,63,21.9,21.9,67,0.00,OVC,SKC,0.00,130.0,WeatherDisplay:10.37,2013-02-19 14:01:00,
2013-02-19 08:06:00,61.3,50.6,30.12,ENE,74,17.0,17.0,68,0.00,OVC,SKC,0.00,120.0,WeatherDisplay:10.37,2013-02-19 14:06:00,
2013-02-19 08:11:00,61.1,50.8,30.13,ENE,58,20.7,20.7,69,0.00,OVC,SKC,0.00,113.0,WeatherDisplay:10.37,2013-02-19 14:11:00,
2013-02-19 08:16:00,61.2,52.1,30.13,East,86,17.3,17.3,72,0.00,OVC,SKC,0.00,91.0,WeatherDisplay:10.37,2013-02-19 14:16:00,
2013-02-19 08:21:00,61.2,51.7,30.13,ENE,66,19.6,19.6,71,0.00,OVC,SKC,0.00,98.0,WeatherDisplay:10.37,2013-02-19 14:21:00,
2013-02-19 08:26:00,61.2,50.6,30.14,ENE,57,26.5,26.5,68,0.00,OVC,SKC,0.00,77.0,WeatherDisplay:10.37,2013-02-19 14:26:00,
2013-02-19 08:31:00,61.2,50.9,30.14,ENE,63,19.6,19.6,69,0.00,OVC,SKC,0.00,105.0,WeatherDisplay:10.37,2013-02-19 14:31:00,
2013-02-19 08:36:00,61.1,50.8,30.14,ENE,59,21.9,21.9,69,0.00,OVC,SKC,0.00,155.0,WeatherDisplay:10.37,2013-02-19 14:36:00,
2013-02-19 08:41:00,61.1,50.5,30.15,ENE,61,16.0,22.0,68,0.00,CLR,SKC,0.00,123.0,WeatherDisplay:10.37,2013-02-19 14:41:00,
2013-02-19 08:46:00,61.1,50.5,30.15,NE,53,23.0,23.0,68,0.00,OVC,SKC,0.00,118.0,WeatherDisplay:10.37,2013-02-19 14:46:00,
2013-02-19 08:51:00,61.1,50.5,30.15,ENE,76,23.0,23.0,68,0.00,OVC,SKC,0.00,137.0,WeatherDisplay:10.37,2013-02-19 14:51:00,
2013-02-19 08:56:00,61.1,50.8,30.16,ENE,57,23.0,23.0,69,0.00,OVC,SKC,0.00,163.0,WeatherDisplay:10.37,2013-02-19 14:56:00,
2013-02-19 09:01:00,61.1,50.5,30.16,NE,49,21.9,21.9,68,0.00,OVC,SKC,0.00,162.0,WeatherDisplay:10.37,2013-02-19 15:01:00,
2013-02-19 09:06:00,61.2,51.3,30.16,NE,44,19.6,19.6,70,0.00,BKN,SKC,0.00,171.0,WeatherDisplay:10.37,2013-02-19 15:06:00,
2013-02-19 09:11:00,61.1,50.8,30.16,ENE,57,21.9,21.9,69,0.00,BKN,SKC,0.00,121.0,WeatherDisplay:10.37,2013-02-19 15:11:00,
2013-02-19 09:16:00,61.1,51.2,30.16,NE,51,17.3,17.3,70,0.00,BKN,SKC,0.00,134.0,WeatherDisplay:10.37,2013-02-19 15:16:00,
2013-02-19 09:21:00,60.9,50.7,30.16,ENE,71,19.6,19.6,69,0.00,BKN,SKC,0.00,137.0,WeatherDisplay:10.37,2013-02-19 15:21:00,
2013-02-19 09:26:00,61.0,50.8,30.16,NE,40,18.4,18.4,69,0.00,BKN,SKC,0.00,125.0,WeatherDisplay:10.37,2013-02-19 15:26:00,
2013-02-19 09:31:00,60.8,50.2,30.16,NE,55,21.9,21.9,68,0.00,BKN,SKC,0.00,132.0,WeatherDisplay:10.37,2013-02-19 15:31:00,
2013-02-19 09:36:00,60.9,50.3,30.16,ENE,64,23.0,23.0,68,0.00,BKN,SKC,0.00,125.0,WeatherDisplay:10.37,2013-02-19 15:36:00,
2013-02-19 09:41:00,60.8,50.2,30.16,NE,51,20.7,20.7,68,0.00,BKN,SKC,0.00,165.0,WeatherDisplay:10.37,2013-02-19 15:41:00,
2013-02-19 09:46:00,60.9,51.0,30.16,NE,38,17.3,18.1,70,0.00,BKN,SKC,0.00,176.0,WeatherDisplay:10.37,2013-02-19 15:46:00,
2013-02-19 09:51:00,60.8,51.0,30.16,NE,41,24.2,24.2,70,0.00,BKN,SKC,0.00,186.0,WeatherDisplay:10.37,2013-02-19 15:51:00,
2013-02-19 09:56:00,61.0,51.9,30.16,ENE,61,18.4,18.4,72,0.00,BKN,SKC,0.00,253.0,WeatherDisplay:10.37,2013-02-19 15:56:00,
2013-02-19 10:01:00,61.0,51.5,30.16,NE,53,19.6,19.6,71,0.00,BKN,SKC,0.00,207.0,WeatherDisplay:10.37,2013-02-19 16:01:00,
2013-02-19 10:06:00,60.9,51.4,30.16,NE,47,21.9,21.9,71,0.00,BKN,SKC,0.00,243.0,WeatherDisplay:10.37,2013-02-19 16:06:00,
2013-02-19 10:11:00,60.9,51.8,30.17,NE,41,20.7,20.7,72,0.00,BKN,SKC,0.00,211.0,WeatherDisplay:10.37,2013-02-19 16:11:00,
2013-02-19 10:16:00,60.9,51.8,30.17,ENE,74,21.9,21.9,72,0.00,BKN,SKC,0.00,197.0,WeatherDisplay:10.37,2013-02-19 16:16:00,
2013-02-19 10:21:00,60.9,51.8,30.17,NE,36,18.4,18.4,72,0.00,BKN,SKC,0.00,197.0,WeatherDisplay:10.37,2013-02-19 16:21:00,
2013-02-19 10:26:00,61.0,52.3,30.17,NE,55,19.6,19.6,73,0.00,BKN,SKC,0.00,209.0,WeatherDisplay:10.37,2013-02-19 16:26:00,
2013-02-19 10:31:00,61.1,52.4,30.17,NE,43,20.7,20.7,73,0.00,BKN,SKC,0.00,216.0,WeatherDisplay:10.37,2013-02-19 16:31:00,
2013-02-19 10:36:00,61.2,52.5,30.17,ENE,63,21.9,21.9,73,0.00,BKN,SKC,0.00,220.0,WeatherDisplay:10.37,2013-02-19 16:36:00,
2013-02-19 10:41:00,61.1,52.7,30.17,ENE,78,21.9,21.9,74,0.00,BKN,SKC,0.00,225.0,WeatherDisplay:10.37,2013-02-19 16:41:00,
2013-02-19 10:46:00,61.2,53.6,30.17,ENE,58,16.1,16.1,76,0.00,BKN,SKC,0.00,237.0,WeatherDisplay:10.37,2013-02-19 16:46:00,
2013-02-19 10:51:00,61.3,53.7,30.17,ENE,78,18.4,18.4,76,0.00,BKN,SKC,0.00,230.0,WeatherDisplay:10.37,2013-02-19 16:51:00,
2013-02-19 10:56:00,61.2,53.6,30.17,East,82,17.3,17.3,76,0.00,BKN,SKC,0.00,283.0,WeatherDisplay:10.37,2013-02-19 16:56:00,
2013-02-19 11:01:00,61.3,54.0,30.17,ENE,78,17.3,17.3,77,0.00,BKN,SKC,0.00,320.0,WeatherDisplay:10.37,2013-02-19 17:01:00,
2013-02-19 11:06:00,61.4,54.1,30.17,NE,55,18.4,18.4,77,0.00,OVC,SKC,0.00,313.0,WeatherDisplay:10.37,2013-02-19 17:06:00,
2013-02-19 11:11:00,61.7,54.1,30.17,ENE,58,17.3,17.3,76,0.00,OVC,SKC,0.00,315.0,WeatherDisplay:10.37,2013-02-19 17:11:00,
2013-02-19 11:16:00,61.8,53.1,30.17,ENE,69,21.9,21.9,73,0.00,OVC,SKC,0.00,199.0,WeatherDisplay:10.37,2013-02-19 17:16:00,
2013-02-19 11:21:00,61.8,53.1,30.17,ENE,59,21.9,21.9,73,0.00,OVC,SKC,0.00,278.0,WeatherDisplay:10.37,2013-02-19 17:21:00,
2013-02-19 11:26:00,61.8,53.4,30.17,ENE,57,17.3,17.3,74,0.00,OVC,SKC,0.00,288.0,WeatherDisplay:10.37,2013-02-19 17:26:00,
2013-02-19 11:31:00,62.0,52.9,30.18,ENE,63,19.6,19.6,72,0.00,OVC,SKC,0.00,281.0,WeatherDisplay:10.37,2013-02-19 17:31:00,
2013-02-19 11:36:00,61.9,53.1,30.18,NE,56,16.1,16.1,73,0.00,OVC,SKC,0.00,269.0,WeatherDisplay:10.37,2013-02-19 17:36:00,
2013-02-19 11:41:00,62.0,53.6,30.18,East,91,18.4,18.4,74,0.00,OVC,SKC,0.00,278.0,WeatherDisplay:10.37,2013-02-19 17:41:00,
2013-02-19 11:46:00,62.0,53.2,30.18,ENE,73,16.1,16.1,73,0.00,OVC,SKC,0.00,315.0,WeatherDisplay:10.37,2013-02-19 17:46:00,
2013-02-19 11:51:00,62.2,54.2,30.18,East,84,12.7,12.7,75,0.00,OVC,SKC,0.00,288.0,WeatherDisplay:10.37,2013-02-19 17:51:00,
2013-02-19 11:56:00,62.3,54.3,30.17,ENE,71,11.5,11.5,75,0.00,OVC,SKC,0.00,301.0,WeatherDisplay:10.37,2013-02-19 17:56:00,
2013-02-19 12:01:00,62.3,54.3,30.17,ENE,78,16.1,16.1,75,0.00,OVC,SKC,0.00,278.0,WeatherDisplay:10.37,2013-02-19 18:01:00,
2013-02-19 12:06:00,62.2,54.2,30.17,NE,51,19.6,19.6,75,0.00,OVC,SKC,0.00,281.0,WeatherDisplay:10.37,2013-02-19 18:06:00,
2013-02-19 12:11:00,62.1,53.7,30.17,ENE,61,19.6,19.6,74,0.00,OVC,SKC,0.00,278.0,WeatherDisplay:10.37,2013-02-19 18:11:00,
2013-02-19 12:16:00,62.2,54.2,30.17,ENE,61,17.3,17.3,75,0.00,OVC,SKC,0.00,281.0,WeatherDisplay:10.37,2013-02-19 18:16:00,
2013-02-19 12:21:00,62.2,54.2,30.17,ENE,76,17.3,17.3,75,0.00,OVC,SKC,0.00,332.0,WeatherDisplay:10.37,2013-02-19 18:21:00,
2013-02-19 12:26:00,62.3,54.6,30.16,East,89,17.0,17.0,76,0.00,OVC,SKC,0.00,281.0,WeatherDisplay:10.37,2013-02-19 18:26:00,
2013-02-19 12:31:00,62.3,54.6,30.16,ENE,70,16.1,16.1,76,0.00,OVC,SKC,0.00,283.0,WeatherDisplay:10.37,2013-02-19 18:31:00,
2013-02-19 12:36:00,62.4,55.1,30.16,ENE,67,15.0,15.0,77,0.00,OVC,SKC,0.00,267.0,WeatherDisplay:10.37,2013-02-19 18:36:00,
2013-02-19 12:41:00,62.3,54.6,30.16,East,79,16.1,16.1,76,0.00,OVC,SKC,0.00,232.0,WeatherDisplay:10.37,2013-02-19 18:41:00,
2013-02-19 12:46:00,62.4,54.7,30.16,ENE,66,17.3,17.3,76,0.00,OVC,SKC,0.00,262.0,WeatherDisplay:10.37,2013-02-19 18:46:00,
2013-02-19 12:50:00,62.4,54.7,30.16,ENE,78,19.6,19.6,76,0.00,OVC,SKC,0.00,320.0,WeatherDisplay:10.37,2013-02-19 18:50:00,
2013-02-19 12:55:00,62.5,54.8,30.16,ENE,61,19.6,19.6,76,0.00,OVC,SKC,0.00,385.0,WeatherDisplay:10.37,2013-02-19 18:55:00,
2013-02-19 13:00:00,62.7,54.7,30.15,ENE,57,15.0,15.0,75,0.00,OVC,SKC,0.00,454.0,WeatherDisplay:10.37,2013-02-19 19:00:00,
2013-02-19 13:05:00,62.6,54.6,30.15,ENE,73,19.6,19.6,75,0.00,OVC,SKC,0.00,420.0,WeatherDisplay:10.37,2013-02-19 19:05:00,
2013-02-19 13:10:00,62.7,55.0,30.14,NE,42,17.3,17.3,76,0.00,OVC,SKC,0.00,425.0,WeatherDisplay:10.37,2013-02-19 19:10:00,
2013-02-19 13:15:00,62.7,55.0,30.14,ENE,64,17.3,17.3,76,0.00,OVC,SKC,0.00,629.0,WeatherDisplay:10.37,2013-02-19 19:15:00,
2013-02-19 13:20:00,62.6,54.9,30.14,ENE,65,16.1,16.1,76,0.00,OVC,SKC,0.00,397.0,WeatherDisplay:10.37,2013-02-19 19:20:00,
2013-02-19 13:26:00,62.7,55.4,30.14,East,79,15.0,15.0,77,0.00,OVC,SKC,0.00,788.0,WeatherDisplay:10.37,2013-02-19 19:26:00,
2013-02-19 13:31:00,62.8,55.1,30.13,NE,46,17.3,17.3,76,0.00,OVC,SKC,0.00,466.0,WeatherDisplay:10.37,2013-02-19 19:31:00,
2013-02-19 13:35:00,62.7,55.0,30.13,ENE,69,17.3,17.3,76,0.00,OVC,SKC,0.00,501.0,WeatherDisplay:10.37,2013-02-19 19:35:00,
2013-02-19 13:40:00,62.7,55.0,30.13,ENE,66,15.0,15.0,76,0.00,OVC,SKC,0.00,468.0,WeatherDisplay:10.37,2013-02-19 19:40:00,
2013-02-19 13:46:00,62.9,55.2,30.13,East,80,18.4,18.4,76,0.00,OVC,SKC,0.00,408.0,WeatherDisplay:10.37,2013-02-19 19:46:00,
2013-02-19 13:50:00,62.7,55.0,30.13,ENE,75,19.6,19.6,76,0.00,OVC,SKC,0.00,687.0,WeatherDisplay:10.37,2013-02-19 19:50:00,
2013-02-19 13:55:00,62.9,55.9,30.12,ENE,67,15.0,15.0,78,0.00,OVC,SKC,0.00,454.0,WeatherDisplay:10.37,2013-02-19 19:55:00,
2013-02-19 14:00:00,63.0,55.7,30.12,ENE,63,19.6,19.6,77,0.00,OVC,SKC,0.00,668.0,WeatherDisplay:10.37,2013-02-19 20:00:00,
2013-02-19 14:05:00,63.2,56.2,30.12,ENE,71,17.3,17.3,78,0.00,OVC,SKC,0.00,420.0,WeatherDisplay:10.37,2013-02-19 20:05:00,
2013-02-19 14:10:00,63.0,56.0,30.12,NE,53,17.3,17.3,78,0.00,OVC,SKC,0.00,425.0,WeatherDisplay:10.37,2013-02-19 20:10:00,
2013-02-19 14:15:00,62.9,55.9,30.12,East,84,18.4,18.4,78,0.00,OVC,SKC,0.00,508.0,WeatherDisplay:10.37,2013-02-19 20:15:00,
2013-02-19 14:20:00,63.0,56.4,30.12,ENE,75,18.4,18.4,79,0.00,OVC,SKC,0.00,700.0,WeatherDisplay:10.37,2013-02-19 20:20:00,
2013-02-19 14:25:00,63.0,56.4,30.12,ENE,61,18.4,18.4,79,0.00,OVC,SKC,0.00,687.0,WeatherDisplay:10.37,2013-02-19 20:25:00,
2013-02-19 14:31:00,62.9,55.9,30.10,ENE,71,19.6,19.6,78,0.00,OVC,SKC,0.00,656.0,WeatherDisplay:10.37,2013-02-19 20:31:00,
2013-02-19 14:36:00,63.2,56.2,30.10,ENE,60,19.6,19.6,78,0.00,OVC,SKC,0.00,643.0,WeatherDisplay:10.37,2013-02-19 20:36:00,
2013-02-19 14:40:00,63.2,56.2,30.10,ENE,57,18.4,18.4,78,0.00,OVC,SKC,0.00,631.0,WeatherDisplay:10.37,2013-02-19 20:40:00,
2013-02-19 14:45:00,63.3,56.3,30.10,ENE,64,19.6,19.6,78,0.00,OVC,SKC,0.00,687.0,WeatherDisplay:10.37,2013-02-19 20:45:00,
2013-02-19 14:50:00,63.3,56.3,30.10,ENE,74,19.6,19.6,78,0.00,OVC,SKC,0.00,654.0,WeatherDisplay:10.37,2013-02-19 20:50:00,
2013-02-19 14:55:00,63.3,56.0,30.10,ENE,71,21.9,21.9,77,0.00,OVC,SKC,0.00,619.0,WeatherDisplay:10.37,2013-02-19 20:55:00,
2013-02-19 15:00:00,63.4,56.4,30.10,East,79,17.3,17.3,78,0.00,OVC,SKC,0.00,603.0,WeatherDisplay:10.37,2013-02-19 21:00:00,
2013-02-19 15:05:00,63.2,55.9,30.10,ENE,65,18.4,18.4,77,0.00,OVC,SKC,0.00,587.0,WeatherDisplay:10.37,2013-02-19 21:05:00,
2013-02-19 15:10:00,63.5,56.2,30.08,ENE,59,20.7,20.7,77,0.00,OVC,SKC,0.00,550.0,WeatherDisplay:10.37,2013-02-19 21:10:00,
2013-02-19 15:15:00,63.4,56.1,30.08,ENE,63,20.7,20.7,77,0.00,OVC,SKC,0.00,538.0,WeatherDisplay:10.37,2013-02-19 21:15:00,
2013-02-19 15:20:00,63.7,56.7,30.08,East,82,15.0,15.0,78,0.00,OVC,SKC,0.00,545.0,WeatherDisplay:10.37,2013-02-19 21:20:00,
2013-02-19 15:25:00,63.7,56.7,30.08,ENE,74,16.1,16.1,78,0.00,OVC,SKC,0.00,520.0,WeatherDisplay:10.37,2013-02-19 21:25:00,
2013-02-19 15:30:00,63.7,56.4,30.08,ENE,68,19.6,19.6,77,0.00,OVC,SKC,0.00,519.0,WeatherDisplay:10.37,2013-02-19 21:30:00,
2013-02-19 15:35:00,63.5,56.5,30.08,East,96,17.3,17.3,78,0.00,OVC,SKC,0.00,490.0,WeatherDisplay:10.37,2013-02-19 21:35:00,
2013-02-19 15:40:00,63.5,56.9,30.08,East,87,20.7,20.7,79,0.00,OVC,SKC,0.00,480.0,WeatherDisplay:10.37,2013-02-19 21:40:00,
2013-02-19 15:45:00,63.4,56.8,30.08,East,91,18.4,18.4,79,0.00,OVC,SKC,0.00,466.0,WeatherDisplay:10.37,2013-02-19 21:45:00,
2013-02-19 15:50:00,63.4,56.8,30.08,East,92,17.3,17.3,79,0.00,OVC,SKC,0.00,446.0,WeatherDisplay:10.37,2013-02-19 21:50:00,
2013-02-19 15:55:00,63.7,57.1,30.07,East,85,18.4,18.4,79,0.00,OVC,SKC,0.00,436.0,WeatherDisplay:10.37,2013-02-19 21:55:00,
2013-02-19 16:00:00,63.8,56.8,30.07,ESE,110,21.9,21.9,78,0.00,OVC,SKC,0.00,415.0,WeatherDisplay:10.37,2013-02-19 22:00:00,
2013-02-19 16:05:00,63.8,56.4,30.07,ENE,75,19.6,19.6,77,0.00,OVC,SKC,0.00,408.0,WeatherDisplay:10.37,2013-02-19 22:05:00,
2013-02-19 16:10:00,63.9,56.9,30.07,ENE,66,17.3,17.3,78,0.00,OVC,SKC,0.00,392.0,WeatherDisplay:10.37,2013-02-19 22:10:00,
2013-02-19 16:15:00,63.9,56.9,30.07,ENE,65,17.3,17.3,78,0.00,OVC,SKC,0.00,378.0,WeatherDisplay:10.37,2013-02-19 22:15:00,
2013-02-19 16:20:00,64.1,57.1,30.07,NNE,26,15.0,15.0,78,0.00,OVC,SKC,0.00,343.0,WeatherDisplay:10.37,2013-02-19 22:20:00,
2013-02-19 16:25:00,64.0,57.0,30.07,ENE,78,17.3,17.3,78,0.00,OVC,SKC,0.00,329.0,WeatherDisplay:10.37,2013-02-19 22:25:00,
2013-02-19 16:30:00,63.9,56.5,30.07,ENE,72,19.6,19.6,77,0.00,OVC,SKC,0.00,336.0,WeatherDisplay:10.37,2013-02-19 22:30:00,
2013-02-19 16:35:00,64.0,56.6,30.07,East,80,17.3,17.3,77,0.00,OVC,SKC,0.00,304.0,WeatherDisplay:10.37,2013-02-19 22:35:00,
2013-02-19 16:40:00,63.9,56.5,30.07,ESE,107,18.4,18.4,77,0.00,OVC,SKC,0.00,279.0,WeatherDisplay:10.37,2013-02-19 22:40:00,
2013-02-19 16:45:00,63.9,56.5,30.07,East,96,18.4,18.4,77,0.00,OVC,SKC,0.00,279.0,WeatherDisplay:10.37,2013-02-19 22:45:00,
2013-02-19 16:50:00,63.8,56.4,30.07,ENE,74,18.4,18.4,77,0.00,OVC,SKC,0.00,197.0,WeatherDisplay:10.37,2013-02-19 22:50:00,
2013-02-19 16:55:00,63.8,56.4,30.07,East,80,21.9,21.9,77,0.00,OVC,SKC,0.00,158.0,WeatherDisplay:10.37,2013-02-19 22:55:00,
2013-02-19 17:00:00,63.7,56.4,30.07,ENE,74,13.8,14.3,77,0.00,OVC,SKC,0.00,120.0,WeatherDisplay:10.37,2013-02-19 23:00:00,
2013-02-19 17:05:00,63.7,56.4,30.07,ESE,109,16.1,16.1,77,0.00,OVC,SKC,0.00,125.0,WeatherDisplay:10.37,2013-02-19 23:05:00,
2013-02-19 17:10:00,63.6,56.3,30.07,East,88,18.4,18.4,77,0.00,OVC,SKC,0.00,199.0,WeatherDisplay:10.37,2013-02-19 23:10:00,
2013-02-19 17:15:00,63.7,56.7,30.06,East,80,15.0,15.0,78,0.00,OVC,SKC,0.00,160.0,WeatherDisplay:10.37,2013-02-19 23:15:00,
2013-02-19 17:20:00,63.8,56.8,30.06,East,89,13.8,13.8,78,0.00,OVC,SKC,0.00,116.0,WeatherDisplay:10.37,2013-02-19 23:20:00,
2013-02-19 17:25:00,63.6,56.6,30.06,East,88,16.1,16.1,78,0.00,OVC,SKC,0.00,53.0,WeatherDisplay:10.37,2013-02-19 23:25:00,
2013-02-19 17:30:00,63.5,56.5,30.06,ENE,71,17.3,17.3,78,0.00,OVC,SKC,0.00,62.0,WeatherDisplay:10.37,2013-02-19 23:30:00,
2013-02-19 17:35:00,63.4,56.8,30.06,East,88,12.7,12.7,79,0.00,OVC,SKC,0.00,47.0,WeatherDisplay:10.37,2013-02-19 23:35:00,
2013-02-19 17:40:00,63.4,56.8,30.05,East,79,12.7,12.7,79,0.00,OVC,SKC,0.00,42.0,WeatherDisplay:10.37,2013-02-19 23:40:00,
2013-02-19 17:45:00,63.3,56.7,30.05,ENE,73,12.7,12.7,79,0.00,OVC,SKC,0.00,33.0,WeatherDisplay:10.37,2013-02-19 23:45:00,
2013-02-19 17:50:00,63.3,56.7,30.05,East,94,12.7,12.7,79,0.00,OVC,SKC,0.00,25.0,WeatherDisplay:10.37,2013-02-19 23:50:00,
2013-02-19 17:55:00,63.3,57.0,30.05,East,90,11.5,11.5,80,0.00,OVC,SKC,0.00,19.0,WeatherDisplay:10.37,2013-02-19 23:55:00,
2013-02-19 18:00:00,63.3,57.0,30.05,East,96,11.5,11.5,80,0.00,OVC,SKC,0.00,19.0,WeatherDisplay:10.37,2013-02-20 00:00:00,
2013-02-19 18:05:00,63.3,57.0,30.05,East,90,11.5,11.5,80,0.00,-RA,SKC,0.00,12.0,WeatherDisplay:10.37,2013-02-20 00:05:00,
2013-02-19 18:10:00,63.3,57.4,30.05,ENE,70,11.5,11.5,81,0.00,-RA,SKC,0.00,7.0,WeatherDisplay:10.37,2013-02-20 00:10:00,
2013-02-19 18:15:00,63.3,57.4,30.07,East,89,11.5,11.5,81,0.00,-RA,SKC,0.00,0.0,WeatherDisplay:10.37,2013-02-20 00:15:00,
2013-02-19 18:20:00,63.3,57.4,30.07,ENE,70,12.7,12.7,81,0.00,-RA,SKC,0.00,0.0,WeatherDisplay:10.37,2013-02-20 00:20:00,
2013-02-19 18:25:00,63.3,57.4,30.06,ENE,71,14.0,14.0,81,0.00,-RA,SKC,0.00,0.0,WeatherDisplay:10.37,2013-02-20 00:25:00,
2013-02-19 18:30:00,63.3,57.4,30.06,ENE,74,12.7,12.7,81,0.00,-RA,SKC,0.00,0.0,WeatherDisplay:10.37,2013-02-20 00:30:00,
2013-02-19 18:35:00,63.2,57.3,30.06,ENE,67,15.0,15.0,81,0.00,-RA,SKC,0.00,0.0,WeatherDisplay:10.37,2013-02-20 00:35:00,
2013-02-19 18:40:00,63.2,57.3,30.05,East,79,15.0,15.0,81,0.00,-RA,SKC,0.00,0.0,WeatherDisplay:10.37,2013-02-20 00:40:00,
2013-02-19 18:45:00,63.2,57.3,30.05,East,89,17.3,17.3,81,0.00,-RA,SKC,0.00,0.0,WeatherDisplay:10.37,2013-02-20 00:45:00,
2013-02-19 18:50:00,63.1,57.2,30.05,ENE,78,15.0,15.0,81,0.00,-RA,SKC,0.00,0.0,WeatherDisplay:10.37,2013-02-20 00:50:00,
2013-02-19 18:55:00,63.2,57.3,30.05,East,87,15.0,15.0,81,0.00,-RA,SKC,0.00,0.0,WeatherDisplay:10.37,2013-02-20 00:55:00,
2013-02-19 19:00:00,63.2,57.3,30.05,East,80,13.8,13.8,81,0.00,-RA,SKC,0.00,0.0,WeatherDisplay:10.37,2013-02-20 01:00:00,
2013-02-19 19:05:00,63.2,57.3,30.05,ENE,78,15.0,15.0,81,0.00,OVC,SKC,0.00,0.0,WeatherDisplay:10.37,2013-02-20 01:05:00,
2013-02-19 19:10:00,63.3,57.4,30.06,East,91,11.5,11.5,81,0.00,OVC,SKC,0.00,0.0,WeatherDisplay:10.37,2013-02-20 01:10:00,
2013-02-19 19:15:00,63.3,57.4,30.06,East,82,13.8,13.8,81,0.00,OVC,SKC,0.00,0.0,WeatherDisplay:10.37,2013-02-20 01:15:00,
2013-02-19 19:20:00,63.3,57.4,30.06,East,88,11.5,11.5,81,0.00,OVC,SKC,0.00,0.0,WeatherDisplay:10.37,2013-02-20 01:20:00,
2013-02-19 19:25:00,63.4,57.1,30.07,NE,54,12.7,12.7,80,0.00,OVC,SKC,0.00,0.0,WeatherDisplay:10.37,2013-02-20 01:25:00,
2013-02-19 19:30:00,63.4,57.1,30.07,East,90,11.5,11.5,80,0.00,OVC,SKC,0.00,0.0,WeatherDisplay:10.37,2013-02-20 01:30:00,
2013-02-19 19:35:00,63.5,57.2,30.07,East,85,11.5,11.5,80,0.00,OVC,SKC,0.00,0.0,WeatherDisplay:10.37,2013-02-20 01:35:00,
2013-02-19 19:40:00,63.5,57.2,30.07,ESE,113,12.7,12.7,80,0.00,OVC,SKC,0.00,0.0,WeatherDisplay:10.37,2013-02-20 01:40:00,
2013-02-19 19:45:00,63.6,57.0,30.07,East,79,12.7,12.7,79,0.00,OVC,SKC,0.00,0.0,WeatherDisplay:10.37,2013-02-20 01:45:00,
2013-02-19 19:50:00,63.6,57.0,30.07,ENE,78,15.0,15.0,79,0.00,OVC,SKC,0.00,0.0,WeatherDisplay:10.37,2013-02-20 01:50:00,
2013-02-19 19:55:00,63.7,57.1,30.07,East,80,12.0,12.0,79,0.00,OVC,SKC,0.00,0.0,WeatherDisplay:10.37,2013-02-20 01:55:00,
2013-02-19 20:01:00,63.7,57.4,30.07,East,86,9.0,13.0,80,0.00,CLR,SKC,0.00,0.0,WeatherDisplay:10.37,2013-02-20 02:01:00,
2013-02-19 20:06:00,63.6,57.3,30.07,ENE,69,13.8,13.8,80,0.00,CLR,SKC,0.00,0.0,WeatherDisplay:10.37,2013-02-20 02:06:00,
2013-02-19 20:11:00,63.5,57.2,30.07,East,82,9.0,15.0,80,0.00,CLR,SKC,0.00,0.0,WeatherDisplay:10.37,2013-02-20 02:11:00,
2013-02-19 20:16:00,63.5,57.2,30.07,East,101,11.5,11.5,80,0.00,OVC,SKC,0.00,0.0,WeatherDisplay:10.37,2013-02-20 02:16:00,
2013-02-19 20:21:00,63.5,57.2,30.07,East,82,10.0,15.0,80,0.00,CLR,SKC,0.00,0.0,WeatherDisplay:10.37,2013-02-20 02:21:00,
2013-02-19 20:26:00,63.5,57.2,30.05,East,92,13.8,13.8,80,0.00,OVC,SKC,0.00,0.0,WeatherDisplay:10.37,2013-02-20 02:26:00,
2013-02-19 20:31:00,63.4,57.5,30.05,East,83,9.0,14.0,81,0.00,CLR,SKC,0.00,0.0,WeatherDisplay:10.37,2013-02-20 02:31:00,
2013-02-19 20:36:00,63.4,57.5,30.05,East,90,13.8,13.8,81,0.00,CLR,SKC,0.00,0.0,WeatherDisplay:10.37,2013-02-20 02:36:00,
2013-02-19 20:41:00,63.4,57.5,30.06,ESE,111,13.8,13.8,81,0.00,OVC,SKC,0.00,0.0,WeatherDisplay:10.37,2013-02-20 02:41:00,
2013-02-19 20:46:00,63.4,57.5,30.06,ENE,72,12.7,12.7,81,0.00,OVC,SKC,0.00,0.0,WeatherDisplay:10.37,2013-02-20 02:46:00,
2013-02-19 20:51:00,63.4,57.5,30.06,East,85,10.0,16.0,81,0.00,CLR,SKC,0.00,0.0,WeatherDisplay:10.37,2013-02-20 02:51:00,
2013-02-19 20:56:00,63.4,57.5,30.05,ENE,64,13.8,13.8,81,0.00,CLR,SKC,0.00,0.0,WeatherDisplay:10.37,2013-02-20 02:56:00,
2013-02-19 21:01:00,63.4,57.5,30.05,East,91,13.0,13.0,81,0.00,CLR,SKC,0.00,0.0,WeatherDisplay:10.37,2013-02-20 03:01:00,
2013-02-19 21:06:00,63.4,57.5,30.05,East,88,14.0,14.0,81,0.00,CLR,SKC,0.00,0.0,WeatherDisplay:10.37,2013-02-20 03:06:00,
2013-02-19 21:11:00,63.4,57.5,30.05,East,92,12.0,16.0,81,0.00,CLR,SKC,0.00,0.0,WeatherDisplay:10.37,2013-02-20 03:11:00,
2013-02-19 21:16:00,63.5,57.2,30.05,East,95,15.0,15.0,80,0.00,CLR,SKC,0.00,0.0,WeatherDisplay:10.37,2013-02-20 03:16:00,
2013-02-19 21:21:00,63.5,57.2,30.05,East,93,12.0,17.0,80,0.00,CLR,SKC,0.00,0.0,WeatherDisplay:10.37,2013-02-20 03:21:00,
2013-02-19 21:26:00,63.5,57.2,30.05,ESE,119,15.0,15.0,80,0.00,OVC,SKC,0.00,0.0,WeatherDisplay:10.37,2013-02-20 03:26:00,
2013-02-19 21:31:00,63.6,57.3,30.05,East,89,13.0,15.0,80,0.00,CLR,SKC,0.00,0.0,WeatherDisplay:10.37,2013-02-20 03:31:00,
2013-02-19 21:36:00,63.6,57.3,30.05,East,91,13.8,13.8,80,0.00,CLR,SKC,0.00,0.0,WeatherDisplay:10.37,2013-02-20 03:36:00,
2013-02-19 21:41:00,63.6,57.3,30.05,East,91,12.0,16.0,80,0.00,CLR,SKC,0.00,0.0,WeatherDisplay:10.37,2013-02-20 03:41:00,
2013-02-19 21:46:00,63.6,57.3,30.06,ESE,122,12.7,12.7,80,0.00,CLR,SKC,0.00,0.0,WeatherDisplay:10.37,2013-02-20 03:46:00,
2013-02-19 21:51:00,63.6,57.7,30.06,East,91,12.0,17.0,81,0.00,CLR,SKC,0.00,0.0,WeatherDisplay:10.37,2013-02-20 03:51:00,
2013-02-19 21:56:00,63.6,57.7,30.05,ESE,105,13.8,13.8,81,0.00,OVC,SKC,0.00,0.0,WeatherDisplay:10.37,2013-02-20 03:56:00,
2013-02-19 22:01:00,63.5,57.6,30.05,East,93,12.0,14.0,81,0.00,CLR,SKC,0.00,0.0,WeatherDisplay:10.37,2013-02-20 04:01:00,
2013-02-19 22:06:00,63.5,57.6,30.05,East,83,16.1,16.1,81,0.00,CLR,SKC,0.00,0.0,WeatherDisplay:10.37,2013-02-20 04:06:00,
2013-02-19 22:11:00,63.6,58.0,30.05,East,88,16.1,16.1,82,0.00,CLR,SKC,0.00,0.0,WeatherDisplay:10.37,2013-02-20 04:11:00,
2013-02-19 22:16:00,63.6,58.0,30.05,East,92,11.5,11.5,82,0.00,CLR,SKC,0.00,0.0,WeatherDisplay:10.37,2013-02-20 04:16:00,
2013-02-19 22:21:00,63.6,58.0,30.05,East,94,13.8,13.8,82,0.00,-RA,SKC,0.00,0.0,WeatherDisplay:10.37,2013-02-20 04:21:00,
2013-02-19 22:26:00,63.6,58.0,30.04,East,83,16.1,16.1,82,0.00,CLR,SKC,0.00,0.0,WeatherDisplay:10.37,2013-02-20 04:26:00,
2013-02-19 22:31:00,63.6,58.0,30.04,East,86,16.1,16.1,82,0.00,CLR,SKC,0.00,0.0,WeatherDisplay:10.37,2013-02-20 04:31:00,
2013-02-19 22:36:00,63.6,58.0,30.04,ESE,114,12.7,12.7,82,0.00,-RA,SKC,0.00,0.0,WeatherDisplay:10.37,2013-02-20 04:36:00,
2013-02-19 22:41:00,63.6,58.0,30.04,ENE,69,17.3,17.3,82,0.00,CLR,SKC,0.00,0.0,WeatherDisplay:10.37,2013-02-20 04:41:00,
2013-02-19 22:46:00,63.6,58.0,30.04,East,90,18.4,18.4,82,0.00,CLR,SKC,0.00,0.0,WeatherDisplay:10.37,2013-02-20 04:46:00,
2013-02-19 22:51:00,63.6,58.0,30.04,East,99,16.1,16.1,82,0.00,-RA,SKC,0.00,0.0,WeatherDisplay:10.37,2013-02-20 04:51:00,
2013-02-19 22:56:00,63.6,58.0,30.03,East,86,15.0,15.0,82,0.00,CLR,SKC,0.00,0.0,WeatherDisplay:10.37,2013-02-20 04:56:00,
2013-02-19 23:00:00,63.6,58.0,30.03,East,87,18.4,18.4,82,0.00,CLR,SKC,0.00,0.0,WeatherDisplay:10.37,2013-02-20 05:00:00,
2013-02-19 23:05:00,63.6,58.0,30.03,East,86,16.1,16.1,82,0.00,-RA,SKC,0.00,0.0,WeatherDisplay:10.37,2013-02-20 05:05:00,
2013-02-19 23:10:00,63.8,58.2,30.03,East,92,16.1,16.1,82,0.00,-RA,SKC,0.00,0.0,WeatherDisplay:10.37,2013-02-20 05:10:00,
2013-02-19 23:15:00,63.8,58.2,30.02,East,80,17.3,17.3,82,0.00,-RA,SKC,0.00,0.0,WeatherDisplay:10.37,2013-02-20 05:15:00,
2013-02-19 23:20:00,63.8,57.9,30.02,ENE,78,13.8,13.8,81,0.00,-RA,SKC,0.00,0.0,WeatherDisplay:10.37,2013-02-20 05:20:00,
2013-02-19 23:25:00,63.8,57.9,30.02,East,94,19.6,19.6,81,0.00,-RA,SKC,0.00,0.0,WeatherDisplay:10.37,2013-02-20 05:25:00,
2013-02-19 23:30:00,63.7,57.8,30.02,ESE,113,17.0,17.0,81,0.00,-RA,SKC,0.00,0.0,WeatherDisplay:10.37,2013-02-20 05:30:00,
2013-02-19 23:35:00,63.7,57.8,30.02,East,92,16.1,16.1,81,0.00,-RA,SKC,0.00,0.0,WeatherDisplay:10.37,2013-02-20 05:35:00,
2013-02-19 23:40:00,63.7,57.8,30.02,ENE,75,19.6,19.6,81,0.00,-RA,SKC,0.00,0.0,WeatherDisplay:10.37,2013-02-20 05:40:00,
2013-02-19 23:45:00,63.6,58.0,30.00,ENE,78,18.4,18.4,82,0.00,-RA,SKC,0.00,0.0,WeatherDisplay:10.37,2013-02-20 05:45:00,
2013-02-19 23:50:00,63.6,58.0,30.00,East,97,18.4,18.4,82,0.00,-RA,SKC,0.00,0.0,WeatherDisplay:10.37,2013-02-20 05:50:00,
2013-02-19 23:55:00,63.6,58.0,30.00,East,86,18.4,18.4,82,0.00,-RA,SKC,0.00,0.0,WeatherDisplay:10.37,2013-02-20 05:55:00,